Ogaki, Japan
Current Conditions -  °F | °C
As of 5:23 PM on Tuesday 21 Oct 2014 (Local Time) from RJNG Reporting Station
Broken Clouds Broken Clouds  
Wind Chill: 68°   Ceiling: 5000
Heat Index: 68°   Visibility: 6mi
Dew Point: 64°   Wind: 2mph
Humidity: 88%   Direction: 260°W
Pressure: 29.94"   Gusts: NA
Location:  35.37°N, 136.61°E
Report Text: RJNG 210823Z 26002KT 9999 FEW015 BKN050 20/18 Q1014 RMK 1CU015 5SC050 A2997
Loading
Personal Weather Stations






























Interactive Weather Map
Tropical Storm Tracking
New forecast layout! Learn more

10-Day Weather Forecast

Advertisements
Track Severe Weather on mobile